Palmer Park, Maryland
Current Conditions -  °F | °C
As of 11:25 AM on Thursday 29 Jan 2015 (Local Time) from KCGS Reporting Station
Clear Clear  
Wind Chill: -3°   Ceiling: Unl
Heat Index:   Visibility: 10mi
Dew Point: -10°   Wind: 5mph
Humidity: 47%   Direction: 170°S
Pressure: 30.26"   Gusts: NA
Location:  38.9183°N, 76.8721°W
Report Text: KCGS 291625Z AUTO 17004KT 10SM CLR 00/M10 A3026 RMK AO1
Loading
Personal Weather Stations






























Interactive Weather Map New forecast layout! Learn more

10-Day Weather Forecast

Advertisements
Track Severe Weather on mobile